sensor_id;sensor_type;location;lat;lon;timestamp;pressure;altitude;pressure_sealevel;temperature;humidity
59519;BME280;46994;54.976;73.404;2022-08-20T00:01:14;100844.94;;;12.21;83.95
59519;BME280;46994;54.976;73.404;2022-08-20T00:03:42;100846.09;;;12.18;84.22
59519;BME280;46994;54.976;73.404;2022-08-20T00:06:12;100849.13;;;12.23;83.94
59519;BME280;46994;54.976;73.404;2022-08-20T00:08:40;100860.69;;;12.32;83.39
59519;BME280;46994;54.976;73.404;2022-08-20T00:11:09;100849.28;;;12.30;83.04
59519;BME280;46994;54.976;73.404;2022-08-20T00:13:41;100856.81;;;12.34;83.24
59519;BME280;46994;54.976;73.404;2022-08-20T00:16:09;100848.47;;;12.21;82.97
59519;BME280;46994;54.976;73.404;2022-08-20T00:18:36;100865.19;;;12.40;83.01
59519;BME280;46994;54.976;73.404;2022-08-20T00:21:06;100856.97;;;12.41;82.84
59519;BME280;46994;54.976;73.404;2022-08-20T00:23:42;100855.16;;;12.25;82.68
59519;BME280;46994;54.976;73.404;2022-08-20T00:26:09;100860.03;;;12.30;82.57
59519;BME280;46994;54.976;73.404;2022-08-20T00:28:37;100857.34;;;12.30;82.97
59519;BME280;46994;54.976;73.404;2022-08-20T00:31:06;100862.53;;;12.31;82.73
59519;BME280;46994;54.976;73.404;2022-08-20T00:33:34;100867.53;;;12.43;82.27
59519;BME280;46994;54.976;73.404;2022-08-20T00:36:01;100846.53;;;12.38;81.93
59519;BME280;46994;54.976;73.404;2022-08-20T00:38:33;100864.00;;;12.42;81.96
59519;BME280;46994;54.976;73.404;2022-08-20T00:41:00;100854.78;;;12.37;82.08
59519;BME280;46994;54.976;73.404;2022-08-20T00:46:04;100865.03;;;12.33;82.49
59519;BME280;46994;54.976;73.404;2022-08-20T00:48:35;100866.38;;;12.29;82.52
59519;BME280;46994;54.976;73.404;2022-08-20T00:51:11;100875.97;;;12.31;82.51
59519;BME280;46994;54.976;73.404;2022-08-20T00:53:40;100872.94;;;12.26;82.27
59519;BME280;46994;54.976;73.404;2022-08-20T00:56:09;100877.00;;;12.30;81.96
59519;BME280;46994;54.976;73.404;2022-08-20T00:58:37;100873.16;;;12.17;82.29
59519;BME280;46994;54.976;73.404;2022-08-20T01:01:06;100886.56;;;12.17;82.66
59519;BME280;46994;54.976;73.404;2022-08-20T01:03:33;100890.94;;;12.18;82.73
59519;BME280;46994;54.976;73.404;2022-08-20T01:06:00;100890.06;;;12.33;82.27
59519;BME280;46994;54.976;73.404;2022-08-20T01:08:27;100887.16;;;12.51;81.73
59519;BME280;46994;54.976;73.404;2022-08-20T01:10:54;100881.75;;;12.59;81.14
59519;BME280;46994;54.976;73.404;2022-08-20T01:13:48;100872.47;;;12.70;80.99
59519;BME280;46994;54.976;73.404;2022-08-20T01:16:23;100893.22;;;12.84;80.51
59519;BME280;46994;54.976;73.404;2022-08-20T01:18:51;100888.59;;;12.70;81.09
59519;BME280;46994;54.976;73.404;2022-08-20T01:21:20;100889.44;;;12.71;80.98
59519;BME280;46994;54.976;73.404;2022-08-20T01:23:58;100900.16;;;12.79;81.11
59519;BME280;46994;54.976;73.404;2022-08-20T01:26:40;100903.81;;;12.86;81.18
59519;BME280;46994;54.976;73.404;2022-08-20T01:29:17;100892.75;;;12.81;80.73
59519;BME280;46994;54.976;73.404;2022-08-20T01:31:45;100896.78;;;12.77;80.92
59519;BME280;46994;54.976;73.404;2022-08-20T01:34:19;100895.28;;;12.74;80.21
59519;BME280;46994;54.976;73.404;2022-08-20T01:36:49;100890.75;;;12.75;80.36
59519;BME280;46994;54.976;73.404;2022-08-20T01:39:20;100910.03;;;12.86;80.17
59519;BME280;46994;54.976;73.404;2022-08-20T01:41:56;100923.53;;;12.78;80.70
59519;BME280;46994;54.976;73.404;2022-08-20T01:44:26;100921.91;;;12.69;80.82
59519;BME280;46994;54.976;73.404;2022-08-20T01:46:54;100922.25;;;12.58;81.17
59519;BME280;46994;54.976;73.404;2022-08-20T01:49:31;100928.50;;;12.50;81.22
59519;BME280;46994;54.976;73.404;2022-08-20T01:52:04;100928.81;;;12.55;80.66
59519;BME280;46994;54.976;73.404;2022-08-20T01:54:33;100931.16;;;12.58;80.87
59519;BME280;46994;54.976;73.404;2022-08-20T01:57:04;100922.94;;;12.60;81.17
59519;BME280;46994;54.976;73.404;2022-08-20T01:59:32;100934.84;;;12.57;81.06
59519;BME280;46994;54.976;73.404;2022-08-20T02:01:59;100937.41;;;12.59;80.42
59519;BME280;46994;54.976;73.404;2022-08-20T02:04:28;100926.16;;;12.47;80.10
59519;BME280;46994;54.976;73.404;2022-08-20T02:06:56;100944.59;;;12.58;80.17
59519;BME280;46994;54.976;73.404;2022-08-20T02:09:30;100931.84;;;12.52;80.25
59519;BME280;46994;54.976;73.404;2022-08-20T02:11:57;100931.50;;;12.55;80.38
59519;BME280;46994;54.976;73.404;2022-08-20T02:14:25;100916.38;;;12.54;80.21
59519;BME280;46994;54.976;73.404;2022-08-20T02:16:53;100945.53;;;12.82;79.58
59519;BME280;46994;54.976;73.404;2022-08-20T02:19:25;100931.97;;;12.67;79.50
59519;BME280;46994;54.976;73.404;2022-08-20T02:21:56;100938.69;;;12.71;80.04
59519;BME280;46994;54.976;73.404;2022-08-20T02:24:24;100942.56;;;12.69;80.47
59519;BME280;46994;54.976;73.404;2022-08-20T02:26:51;100951.97;;;12.73;80.21
59519;BME280;46994;54.976;73.404;2022-08-20T02:29:18;100940.53;;;12.71;80.61
59519;BME280;46994;54.976;73.404;2022-08-20T02:31:45;100943.94;;;12.96;80.13
59519;BME280;46994;54.976;73.404;2022-08-20T02:34:13;100925.16;;;12.87;79.62
59519;BME280;46994;54.976;73.404;2022-08-20T02:36:42;100957.72;;;13.01;79.58
59519;BME280;46994;54.976;73.404;2022-08-20T02:39:11;100949.50;;;12.94;79.14
59519;BME280;46994;54.976;73.404;2022-08-20T02:41:38;100951.91;;;12.89;78.53
59519;BME280;46994;54.976;73.404;2022-08-20T02:44:06;100953.22;;;12.93;78.32
59519;BME280;46994;54.976;73.404;2022-08-20T02:46:33;100949.69;;;12.92;78.04
59519;BME280;46994;54.976;73.404;2022-08-20T02:49:01;100950.88;;;12.98;78.10
59519;BME280;46994;54.976;73.404;2022-08-20T02:51:27;100952.31;;;13.09;78.17
59519;BME280;46994;54.976;73.404;2022-08-20T02:53:54;100952.97;;;13.11;77.70
59519;BME280;46994;54.976;73.404;2022-08-20T02:56:21;100959.16;;;13.28;77.90
59519;BME280;46994;54.976;73.404;2022-08-20T02:58:48;100954.66;;;13.20;78.06
59519;BME280;46994;54.976;73.404;2022-08-20T03:01:16;100966.25;;;13.20;77.92
59519;BME280;46994;54.976;73.404;2022-08-20T03:03:43;100970.78;;;13.20;78.32
59519;BME280;46994;54.976;73.404;2022-08-20T03:06:11;100953.81;;;13.19;78.23
59519;BME280;46994;54.976;73.404;2022-08-20T03:08:38;100973.44;;;13.28;78.37
59519;BME280;46994;54.976;73.404;2022-08-20T03:11:05;100961.63;;;13.37;77.84
59519;BME280;46994;54.976;73.404;2022-08-20T03:13:32;100960.41;;;13.40;77.44
59519;BME280;46994;54.976;73.404;2022-08-20T03:16:01;100964.91;;;13.47;76.72
59519;BME280;46994;54.976;73.404;2022-08-20T03:18:33;100971.78;;;13.50;76.57
59519;BME280;46994;54.976;73.404;2022-08-20T03:21:02;100967.63;;;13.47;77.33
59519;BME280;46994;54.976;73.404;2022-08-20T03:23:29;100986.25;;;13.57;77.46
59519;BME280;46994;54.976;73.404;2022-08-20T03:25:56;100964.19;;;13.54;76.68
59519;BME280;46994;54.976;73.404;2022-08-20T03:28:23;100962.09;;;13.41;76.58
59519;BME280;46994;54.976;73.404;2022-08-20T03:30:50;100978.28;;;13.33;77.70
59519;BME280;46994;54.976;73.404;2022-08-20T03:33:19;100987.78;;;13.20;78.12
59519;BME280;46994;54.976;73.404;2022-08-20T03:35:47;100983.72;;;13.25;77.81
59519;BME280;46994;54.976;73.404;2022-08-20T03:38:17;100979.66;;;13.29;77.56
59519;BME280;46994;54.976;73.404;2022-08-20T03:40:44;100972.94;;;13.25;77.70
59519;BME280;46994;54.976;73.404;2022-08-20T03:43:11;100997.69;;;13.28;78.08
59519;BME280;46994;54.976;73.404;2022-08-20T03:45:40;100988.06;;;13.26;77.63
59519;BME280;46994;54.976;73.404;2022-08-20T03:48:09;100970.88;;;13.35;78.38
59519;BME280;46994;54.976;73.404;2022-08-20T03:50:37;100973.34;;;13.44;77.78
59519;BME280;46994;54.976;73.404;2022-08-20T03:53:09;100983.31;;;13.67;77.47
59519;BME280;46994;54.976;73.404;2022-08-20T03:55:37;100969.25;;;13.80;76.63
59519;BME280;46994;54.976;73.404;2022-08-20T03:58:07;100980.53;;;13.98;76.38
59519;BME280;46994;54.976;73.404;2022-08-20T04:00:38;100979.03;;;13.95;75.79
59519;BME280;46994;54.976;73.404;2022-08-20T04:03:07;100988.81;;;13.96;75.89
59519;BME280;46994;54.976;73.404;2022-08-20T04:05:35;100980.50;;;14.21;75.28
59519;BME280;46994;54.976;73.404;2022-08-20T04:08:09;100982.31;;;14.05;75.04
59519;BME280;46994;54.976;73.404;2022-08-20T04:10:36;100988.28;;;14.16;74.76
59519;BME280;46994;54.976;73.404;2022-08-20T04:13:04;101001.50;;;14.25;74.68
59519;BME280;46994;54.976;73.404;2022-08-20T04:15:34;100993.66;;;14.39;73.57
59519;BME280;46994;54.976;73.404;2022-08-20T04:18:05;100994.44;;;14.62;72.83
59519;BME280;46994;54.976;73.404;2022-08-20T04:20:34;100988.13;;;14.55;72.92
59519;BME280;46994;54.976;73.404;2022-08-20T04:23:02;101000.59;;;14.56;72.67
59519;BME280;46994;54.976;73.404;2022-08-20T04:25:31;100999.66;;;14.63;72.61
59519;BME280;46994;54.976;73.404;2022-08-20T04:28:00;101004.03;;;14.50;72.85
59519;BME280;46994;54.976;73.404;2022-08-20T04:30:28;101005.44;;;14.60;72.51
59519;BME280;46994;54.976;73.404;2022-08-20T04:32:55;101008.03;;;14.83;72.07
59519;BME280;46994;54.976;73.404;2022-08-20T04:35:23;101020.06;;;14.96;71.67
59519;BME280;46994;54.976;73.404;2022-08-20T04:37:58;100996.13;;;14.92;71.01
59519;BME280;46994;54.976;73.404;2022-08-20T04:40:25;101000.97;;;14.82;71.90
59519;BME280;46994;54.976;73.404;2022-08-20T04:43:11;101016.31;;;14.82;71.58
59519;BME280;46994;54.976;73.404;2022-08-20T04:45:38;100997.72;;;14.87;71.72
59519;BME280;46994;54.976;73.404;2022-08-20T04:48:06;101023.78;;;15.24;69.64
59519;BME280;46994;54.976;73.404;2022-08-20T04:50:37;101000.13;;;15.26;69.34
59519;BME280;46994;54.976;73.404;2022-08-20T04:53:07;101022.16;;;15.44;69.75
59519;BME280;46994;54.976;73.404;2022-08-20T04:55:39;101006.59;;;15.32;69.32
59519;BME280;46994;54.976;73.404;2022-08-20T04:58:12;101015.75;;;15.31;69.40
59519;BME280;46994;54.976;73.404;2022-08-20T05:00:39;101025.41;;;15.40;68.91
59519;BME280;46994;54.976;73.404;2022-08-20T05:03:06;101009.34;;;15.17;69.47
59519;BME280;46994;54.976;73.404;2022-08-20T05:05:33;101022.00;;;15.16;69.46
59519;BME280;46994;54.976;73.404;2022-08-20T05:08:03;101026.66;;;15.08;70.09
59519;BME280;46994;54.976;73.404;2022-08-20T05:10:30;101011.03;;;15.18;70.08
59519;BME280;46994;54.976;73.404;2022-08-20T05:12:57;101013.63;;;15.11;75.26
59519;BME280;46994;54.976;73.404;2022-08-20T05:15:24;101021.72;;;15.11;72.76
59519;BME280;46994;54.976;73.404;2022-08-20T05:17:56;101011.25;;;15.38;76.57
59519;BME280;46994;54.976;73.404;2022-08-20T05:20:26;101022.41;;;15.64;71.67
59519;BME280;46994;54.976;73.404;2022-08-20T05:22:58;101010.09;;;15.62;76.03
59519;BME280;46994;54.976;73.404;2022-08-20T05:25:26;101020.25;;;15.74;71.65
59519;BME280;46994;54.976;73.404;2022-08-20T05:28:05;100996.81;;;15.45;71.23
59519;BME280;46994;54.976;73.404;2022-08-20T05:30:36;101012.66;;;15.34;72.54
59519;BME280;46994;54.976;73.404;2022-08-20T05:33:04;101000.91;;;15.41;72.89
59519;BME280;46994;54.976;73.404;2022-08-20T05:35:37;100992.06;;;15.47;73.41
59519;BME280;46994;54.976;73.404;2022-08-20T05:38:06;100990.38;;;15.46;71.37
59519;BME280;46994;54.976;73.404;2022-08-20T05:40:33;100999.19;;;15.70;71.46
59519;BME280;46994;54.976;73.404;2022-08-20T05:43:00;101009.88;;;15.78;70.48
59519;BME280;46994;54.976;73.404;2022-08-20T05:45:31;100990.69;;;15.73;70.47
59519;BME280;46994;54.976;73.404;2022-08-20T05:48:04;101001.69;;;15.71;70.39
59519;BME280;46994;54.976;73.404;2022-08-20T05:50:31;101009.03;;;15.77;71.38
59519;BME280;46994;54.976;73.404;2022-08-20T05:52:58;100995.72;;;15.76;70.72
59519;BME280;46994;54.976;73.404;2022-08-20T05:55:27;100992.06;;;16.05;71.75
59519;BME280;46994;54.976;73.404;2022-08-20T05:58:02;100988.03;;;16.22;70.78
59519;BME280;46994;54.976;73.404;2022-08-20T06:00:29;100996.06;;;16.37;70.28
59519;BME280;46994;54.976;73.404;2022-08-20T06:02:58;100997.31;;;16.41;69.68
59519;BME280;46994;54.976;73.404;2022-08-20T06:05:43;100992.22;;;16.25;68.45
59519;BME280;46994;54.976;73.404;2022-08-20T06:08:11;100987.38;;;16.20;70.54
59519;BME280;46994;54.976;73.404;2022-08-20T06:10:39;100974.75;;;16.27;70.78
59519;BME280;46994;54.976;73.404;2022-08-20T06:13:06;100980.84;;;16.36;70.08
59519;BME280;46994;54.976;73.404;2022-08-20T06:15:34;100984.13;;;16.59;69.21
59519;BME280;46994;54.976;73.404;2022-08-20T06:18:04;100986.78;;;16.74;68.23
59519;BME280;46994;54.976;73.404;2022-08-20T06:20:34;100979.91;;;16.78;67.69
59519;BME280;46994;54.976;73.404;2022-08-20T06:23:03;100987.16;;;16.71;67.41
59519;BME280;46994;54.976;73.404;2022-08-20T06:25:31;100985.75;;;16.75;67.71
59519;BME280;46994;54.976;73.404;2022-08-20T06:28:01;100991.25;;;16.95;68.29
59519;BME280;46994;54.976;73.404;2022-08-20T06:30:29;100977.56;;;17.03;67.72
59519;BME280;46994;54.976;73.404;2022-08-20T06:32:55;100955.47;;;17.06;66.50
59519;BME280;46994;54.976;73.404;2022-08-20T06:35:22;100976.25;;;17.47;66.69
59519;BME280;46994;54.976;73.404;2022-08-20T06:37:50;100976.88;;;17.49;64.41
59519;BME280;46994;54.976;73.404;2022-08-20T06:40:24;100972.81;;;17.18;65.54
59519;BME280;46994;54.976;73.404;2022-08-20T06:42:51;100983.03;;;17.16;65.53
59519;BME280;46994;54.976;73.404;2022-08-20T06:45:24;100984.06;;;17.15;65.01
59519;BME280;46994;54.976;73.404;2022-08-20T06:47:55;100957.41;;;17.19;65.16
59519;BME280;46994;54.976;73.404;2022-08-20T06:50:32;100949.72;;;17.29;63.38
59519;BME280;46994;54.976;73.404;2022-08-20T06:53:13;100971.06;;;17.52;62.06
59519;BME280;46994;54.976;73.404;2022-08-20T06:55:43;100973.38;;;17.68;63.25
59519;BME280;46994;54.976;73.404;2022-08-20T06:58:11;100968.25;;;17.80;61.79
59519;BME280;46994;54.976;73.404;2022-08-20T07:00:40;100963.22;;;17.84;60.99
59519;BME280;46994;54.976;73.404;2022-08-20T07:03:09;100965.56;;;18.00;62.22
59519;BME280;46994;54.976;73.404;2022-08-20T07:05:42;100970.75;;;18.01;62.70
59519;BME280;46994;54.976;73.404;2022-08-20T07:08:13;100988.50;;;17.91;62.96
59519;BME280;46994;54.976;73.404;2022-08-20T07:10:41;100983.22;;;17.69;62.89
59519;BME280;46994;54.976;73.404;2022-08-20T07:13:11;100970.00;;;17.46;62.07
59519;BME280;46994;54.976;73.404;2022-08-20T07:15:39;100970.84;;;17.40;62.63
59519;BME280;46994;54.976;73.404;2022-08-20T07:18:08;100975.22;;;17.48;62.87
59519;BME280;46994;54.976;73.404;2022-08-20T07:20:37;100970.47;;;17.63;62.59
59519;BME280;46994;54.976;73.404;2022-08-20T07:23:06;100978.69;;;17.90;62.71
59519;BME280;46994;54.976;73.404;2022-08-20T07:25:33;100960.09;;;17.87;62.47
59519;BME280;46994;54.976;73.404;2022-08-20T07:28:12;100960.50;;;17.70;61.77
59519;BME280;46994;54.976;73.404;2022-08-20T07:30:39;100962.50;;;17.42;62.03
59519;BME280;46994;54.976;73.404;2022-08-20T07:33:26;100969.13;;;17.33;61.39
59519;BME280;46994;54.976;73.404;2022-08-20T07:35:55;100969.84;;;17.61;61.75
59519;BME280;46994;54.976;73.404;2022-08-20T07:38:24;100955.28;;;17.89;61.06
59519;BME280;46994;54.976;73.404;2022-08-20T07:40:54;100969.28;;;18.19;59.88
59519;BME280;46994;54.976;73.404;2022-08-20T07:43:22;100966.38;;;18.27;60.44
59519;BME280;46994;54.976;73.404;2022-08-20T07:45:50;100966.16;;;18.22;59.25
59519;BME280;46994;54.976;73.404;2022-08-20T07:48:17;100958.22;;;18.07;59.91
59519;BME280;46994;54.976;73.404;2022-08-20T07:50:44;100951.56;;;18.29;59.86
59519;BME280;46994;54.976;73.404;2022-08-20T07:53:11;100951.72;;;18.54;56.88
59519;BME280;46994;54.976;73.404;2022-08-20T07:55:38;100957.97;;;18.55;56.26
59519;BME280;46994;54.976;73.404;2022-08-20T07:58:10;100957.38;;;18.59;56.90
59519;BME280;46994;54.976;73.404;2022-08-20T08:00:38;100967.38;;;18.66;56.54
59519;BME280;46994;54.976;73.404;2022-08-20T08:03:05;100943.78;;;18.73;55.67
59519;BME280;46994;54.976;73.404;2022-08-20T08:05:35;100964.63;;;18.85;55.91
59519;BME280;46994;54.976;73.404;2022-08-20T08:08:06;100964.63;;;18.85;55.77
59519;BME280;46994;54.976;73.404;2022-08-20T08:10:35;100966.72;;;18.90;56.57
59519;BME280;46994;54.976;73.404;2022-08-20T08:13:05;100975.47;;;18.92;55.66
59519;BME280;46994;54.976;73.404;2022-08-20T08:15:35;100956.69;;;18.77;54.52
59519;BME280;46994;54.976;73.404;2022-08-20T08:18:18;100960.06;;;18.79;54.96
59519;BME280;46994;54.976;73.404;2022-08-20T08:20:47;100966.28;;;18.93;55.25
59519;BME280;46994;54.976;73.404;2022-08-20T08:23:22;100954.56;;;18.99;53.10
59519;BME280;46994;54.976;73.404;2022-08-20T08:25:50;100945.31;;;19.07;53.83
59519;BME280;46994;54.976;73.404;2022-08-20T08:28:18;100960.28;;;19.29;52.92
59519;BME280;46994;54.976;73.404;2022-08-20T08:30:46;100951.03;;;19.37;53.42
59519;BME280;46994;54.976;73.404;2022-08-20T08:33:29;100947.47;;;19.36;52.80
59519;BME280;46994;54.976;73.404;2022-08-20T08:36:05;100956.44;;;19.43;52.85
59519;BME280;46994;54.976;73.404;2022-08-20T08:38:38;100958.97;;;19.38;52.22
59519;BME280;46994;54.976;73.404;2022-08-20T08:41:31;100956.88;;;19.40;53.19
59519;BME280;46994;54.976;73.404;2022-08-20T08:44:06;100955.72;;;19.61;52.96
59519;BME280;46994;54.976;73.404;2022-08-20T08:46:38;100944.81;;;19.68;52.35
59519;BME280;46994;54.976;73.404;2022-08-20T08:49:12;100953.38;;;19.71;52.01
59519;BME280;46994;54.976;73.404;2022-08-20T08:51:43;100946.84;;;19.79;51.31
59519;BME280;46994;54.976;73.404;2022-08-20T08:54:14;100944.94;;;19.80;52.83
59519;BME280;46994;54.976;73.404;2022-08-20T08:56:42;100944.84;;;19.93;52.21
59519;BME280;46994;54.976;73.404;2022-08-20T08:59:09;100955.94;;;19.91;52.19
59519;BME280;46994;54.976;73.404;2022-08-20T09:01:42;100928.50;;;19.68;52.19
59519;BME280;46994;54.976;73.404;2022-08-20T09:04:15;100947.31;;;19.69;50.90
59519;BME280;46994;54.976;73.404;2022-08-20T09:06:42;100926.06;;;19.53;51.87
59519;BME280;46994;54.976;73.404;2022-08-20T09:09:24;100949.25;;;19.62;51.72
59519;BME280;46994;54.976;73.404;2022-08-20T09:11:54;100944.25;;;19.59;52.46
59519;BME280;46994;54.976;73.404;2022-08-20T09:14:22;100929.47;;;19.42;52.95
59519;BME280;46994;54.976;73.404;2022-08-20T09:16:52;100947.84;;;19.46;51.55
59519;BME280;46994;54.976;73.404;2022-08-20T09:19:20;100947.44;;;19.43;55.05
59519;BME280;46994;54.976;73.404;2022-08-20T09:21:47;100931.22;;;19.30;54.10
59519;BME280;46994;54.976;73.404;2022-08-20T09:24:14;100941.28;;;19.23;52.27
59519;BME280;46994;54.976;73.404;2022-08-20T09:26:41;100929.59;;;19.15;52.40
59519;BME280;46994;54.976;73.404;2022-08-20T09:29:08;100941.47;;;19.28;51.79
59519;BME280;46994;54.976;73.404;2022-08-20T09:31:35;100949.41;;;19.29;53.46
59519;BME280;46994;54.976;73.404;2022-08-20T09:34:02;100929.38;;;19.17;51.08
59519;BME280;46994;54.976;73.404;2022-08-20T09:36:29;100942.31;;;19.28;54.97
59519;BME280;46994;54.976;73.404;2022-08-20T09:38:56;100940.81;;;19.32;50.84
59519;BME280;46994;54.976;73.404;2022-08-20T09:41:23;100941.88;;;19.31;49.69
59519;BME280;46994;54.976;73.404;2022-08-20T09:43:49;100929.34;;;19.24;51.86
59519;BME280;46994;54.976;73.404;2022-08-20T09:46:16;100944.00;;;19.23;49.93
59519;BME280;46994;54.976;73.404;2022-08-20T09:48:43;100930.72;;;19.01;49.48
59519;BME280;46994;54.976;73.404;2022-08-20T09:51:10;100933.19;;;19.09;50.96
59519;BME280;46994;54.976;73.404;2022-08-20T09:53:37;100944.84;;;19.23;49.99
59519;BME280;46994;54.976;73.404;2022-08-20T09:56:03;100926.94;;;19.09;50.34
59519;BME280;46994;54.976;73.404;2022-08-20T09:58:46;100939.25;;;19.11;51.23
59519;BME280;46994;54.976;73.404;2022-08-20T10:01:17;100925.28;;;19.01;50.40
59519;BME280;46994;54.976;73.404;2022-08-20T10:03:46;100925.69;;;19.05;51.01
59519;BME280;46994;54.976;73.404;2022-08-20T10:06:20;100926.75;;;19.04;49.22
59519;BME280;46994;54.976;73.404;2022-08-20T10:08:47;100938.22;;;19.06;49.35
59519;BME280;46994;54.976;73.404;2022-08-20T10:11:15;100912.53;;;19.02;54.62
59519;BME280;46994;54.976;73.404;2022-08-20T10:13:41;100920.69;;;19.02;49.53
59519;BME280;46994;54.976;73.404;2022-08-20T10:16:08;100917.97;;;19.02;52.40
59519;BME280;46994;54.976;73.404;2022-08-20T10:18:35;100918.41;;;18.99;48.38
59519;BME280;46994;54.976;73.404;2022-08-20T10:21:02;100907.59;;;18.85;49.19
59519;BME280;46994;54.976;73.404;2022-08-20T10:23:34;100924.50;;;18.87;50.56
59519;BME280;46994;54.976;73.404;2022-08-20T10:26:00;100924.31;;;18.89;49.03
59519;BME280;46994;54.976;73.404;2022-08-20T10:28:27;100905.16;;;18.71;48.62
59519;BME280;46994;54.976;73.404;2022-08-20T10:30:54;100902.22;;;18.66;48.30
59519;BME280;46994;54.976;73.404;2022-08-20T10:33:20;100911.19;;;18.66;48.72
59519;BME280;46994;54.976;73.404;2022-08-20T10:35:47;100917.47;;;18.60;48.80
59519;BME280;46994;54.976;73.404;2022-08-20T10:38:14;100915.81;;;18.59;49.65
59519;BME280;46994;54.976;73.404;2022-08-20T10:40:41;100909.13;;;18.55;52.75
59519;BME280;46994;54.976;73.404;2022-08-20T10:43:07;100913.69;;;18.68;53.74
59519;BME280;46994;54.976;73.404;2022-08-20T10:45:34;100907.81;;;18.77;51.91
59519;BME280;46994;54.976;73.404;2022-08-20T10:48:02;100904.31;;;18.70;51.13
59519;BME280;46994;54.976;73.404;2022-08-20T10:50:28;100894.06;;;18.72;53.20
59519;BME280;46994;54.976;73.404;2022-08-20T10:52:55;100896.94;;;18.84;50.90
59519;BME280;46994;54.976;73.404;2022-08-20T10:55:22;100897.78;;;18.78;49.52
59519;BME280;46994;54.976;73.404;2022-08-20T10:57:48;100893.22;;;18.72;50.45
59519;BME280;46994;54.976;73.404;2022-08-20T11:00:16;100889.06;;;18.69;52.45
59519;BME280;46994;54.976;73.404;2022-08-20T11:02:44;100893.84;;;18.80;50.97
59519;BME280;46994;54.976;73.404;2022-08-20T11:05:10;100889.84;;;18.76;50.05
59519;BME280;46994;54.976;73.404;2022-08-20T11:07:39;100901.38;;;18.78;50.21
59519;BME280;46994;54.976;73.404;2022-08-20T11:10:08;100901.56;;;18.77;50.96
59519;BME280;46994;54.976;73.404;2022-08-20T11:12:35;100901.16;;;18.73;49.50
59519;BME280;46994;54.976;73.404;2022-08-20T11:15:03;100882.78;;;18.62;53.08
59519;BME280;46994;54.976;73.404;2022-08-20T11:17:33;100898.22;;;18.75;52.66
59519;BME280;46994;54.976;73.404;2022-08-20T11:20:03;100887.41;;;18.68;50.33
59519;BME280;46994;54.976;73.404;2022-08-20T11:22:31;100891.53;;;18.77;50.05
59519;BME280;46994;54.976;73.404;2022-08-20T11:24:58;100889.47;;;18.73;51.42
59519;BME280;46994;54.976;73.404;2022-08-20T11:27:42;100896.94;;;18.84;54.51
59519;BME280;46994;54.976;73.404;2022-08-20T11:30:14;100898.38;;;18.86;53.11
59519;BME280;46994;54.976;73.404;2022-08-20T11:32:41;100875.44;;;18.76;53.32
59519;BME280;46994;54.976;73.404;2022-08-20T11:35:09;100894.81;;;18.92;49.39
59519;BME280;46994;54.976;73.404;2022-08-20T11:37:35;100891.06;;;18.87;49.42
59519;BME280;46994;54.976;73.404;2022-08-20T11:40:03;100885.06;;;18.78;48.13
59519;BME280;46994;54.976;73.404;2022-08-20T11:42:30;100881.97;;;18.68;48.46
59519;BME280;46994;54.976;73.404;2022-08-20T11:44:57;100876.72;;;18.67;49.56
59519;BME280;46994;54.976;73.404;2022-08-20T11:47:26;100886.34;;;18.69;49.46
59519;BME280;46994;54.976;73.404;2022-08-20T11:52:32;100874.03;;;18.60;49.88
59519;BME280;46994;54.976;73.404;2022-08-20T11:54:59;100873.38;;;18.58;51.31
59519;BME280;46994;54.976;73.404;2022-08-20T11:57:32;100884.44;;;18.63;49.46
59519;BME280;46994;54.976;73.404;2022-08-20T12:00:00;100858.81;;;18.52;52.14
59519;BME280;46994;54.976;73.404;2022-08-20T12:02:27;100855.28;;;18.45;49.21
59519;BME280;46994;54.976;73.404;2022-08-20T12:04:54;100871.31;;;18.60;51.26
59519;BME280;46994;54.976;73.404;2022-08-20T12:07:24;100862.97;;;18.55;49.14
59519;BME280;46994;54.976;73.404;2022-08-20T12:09:51;100861.91;;;18.56;49.70
59519;BME280;46994;54.976;73.404;2022-08-20T12:12:19;100874.88;;;18.54;49.30
59519;BME280;46994;54.976;73.404;2022-08-20T12:14:52;100855.47;;;18.50;52.34
59519;BME280;46994;54.976;73.404;2022-08-20T12:17:26;100851.72;;;18.45;50.11
59519;BME280;46994;54.976;73.404;2022-08-20T12:19:56;100862.38;;;18.46;51.68
59519;BME280;46994;54.976;73.404;2022-08-20T12:22:24;100855.94;;;18.41;52.69
59519;BME280;46994;54.976;73.404;2022-08-20T12:24:52;100858.59;;;18.54;54.58
59519;BME280;46994;54.976;73.404;2022-08-20T12:27:25;100862.34;;;18.53;53.84
59519;BME280;46994;54.976;73.404;2022-08-20T12:29:55;100860.03;;;18.56;49.58
59519;BME280;46994;54.976;73.404;2022-08-20T12:32:23;100855.28;;;18.45;48.89
59519;BME280;46994;54.976;73.404;2022-08-20T12:34:51;100865.69;;;18.55;55.75
59519;BME280;46994;54.976;73.404;2022-08-20T12:37:20;100849.38;;;18.55;50.40
59519;BME280;46994;54.976;73.404;2022-08-20T12:39:50;100854.59;;;18.56;50.90
59519;BME280;46994;54.976;73.404;2022-08-20T12:42:18;100853.16;;;18.47;50.04
59519;BME280;46994;54.976;73.404;2022-08-20T12:44:45;100865.50;;;18.43;50.97
59519;BME280;46994;54.976;73.404;2022-08-20T12:47:18;100855.72;;;18.35;52.81
59519;BME280;46994;54.976;73.404;2022-08-20T12:49:52;100860.31;;;18.28;51.60
59519;BME280;46994;54.976;73.404;2022-08-20T12:52:21;100852.00;;;18.23;52.67
59519;BME280;46994;54.976;73.404;2022-08-20T12:54:48;100858.66;;;18.27;54.83
59519;BME280;46994;54.976;73.404;2022-08-20T12:59:50;100855.75;;;18.16;52.93